Time;durP1;ratioP1;P1;durP2;ratioP2;P2;SDS_P1;SDS_P2;PMS_P1;PMS_P2;Temp;Humidity;BMP_temperature;BMP_pressure;BME280_temperature;BME280_humidity;BME280_pressure;Samples;Min_cycle;Max_cycle;Signal;HPM_P1;HPM_P2
2022/10/04 00:01:11;;;;;;;9.13;5.13;;;13.50;99.90;;;;;;4978177;28;20038;-76
2022/10/04 00:03:48;;;;;;;12.18;5.60;;;12.10;99.90;;;;;;4976493;28;20511;-75
2022/10/04 00:06:18;;;;;;;11.60;5.65;;;12.10;99.90;;;;;;4978658;28;20050;-74
2022/10/04 00:08:52;;;;;;;15.50;6.70;;;12.10;99.90;;;;;;4979276;28;20046;-76
2022/10/04 00:11:27;;;;;;;14.40;6.13;;;12.10;99.90;;;;;;4984576;28;20049;-76
2022/10/04 00:14:05;;;;;;;16.10;5.93;;;13.10;99.90;;;;;;4970481;28;20573;-77
2022/10/04 00:16:35;;;;;;;13.82;5.63;;;12.10;99.90;;;;;;4967480;28;20061;-79
2022/10/04 00:19:41;;;;;;;14.73;5.53;;;12.10;99.90;;;;;;4988022;28;20062;-78
2022/10/04 00:22:09;;;;;;;12.02;5.40;;;12.10;99.90;;;;;;4968872;28;20046;-77
2022/10/04 00:24:36;;;;;;;17.20;5.93;;;12.10;99.90;;;;;;4986592;28;20349;-77
2022/10/04 00:27:11;;;;;;;17.17;6.15;;;11.90;99.90;;;;;;4962576;28;20161;-77
2022/10/04 00:29:43;;;;;;;9.80;5.32;;;12.10;99.90;;;;;;4970504;28;20046;-80
2022/10/04 00:32:08;;;;;;;10.18;5.10;;;12.10;99.90;;;;;;4986656;28;20034;-79
2022/10/04 00:34:34;;;;;;;11.15;4.80;;;12.10;99.90;;;;;;4986075;28;20108;-80
2022/10/04 00:37:11;;;;;;;16.92;5.38;;;13.00;99.90;;;;;;4988326;28;20041;-79
2022/10/04 00:39:41;;;;;;;12.48;5.05;;;12.10;99.90;;;;;;4970276;28;20049;-81
2022/10/04 00:42:27;;;;;;;11.45;4.97;;;13.50;99.90;;;;;;4962249;28;20442;-78
2022/10/04 00:45:01;;;;;;;10.25;4.70;;;12.10;99.90;;;;;;4974699;28;20050;-78
2022/10/04 00:47:45;;;;;;;11.88;4.57;;;12.10;99.90;;;;;;4979878;28;20065;-77
2022/10/04 00:50:29;;;;;;;12.30;5.30;;;12.10;99.90;;;;;;4978701;28;20035;-80
2022/10/04 00:52:58;;;;;;;13.80;5.72;;;12.10;99.90;;;;;;4977799;28;20541;-79
2022/10/04 00:55:36;;;;;;;13.82;5.57;;;12.00;99.90;;;;;;4977719;28;20042;-78
2022/10/04 00:58:04;;;;;;;16.08;5.43;;;12.00;99.90;;;;;;4961741;28;20045;-77
2022/10/04 01:00:34;;;;;;;14.00;6.15;;;12.00;99.90;;;;;;4961565;28;20077;-76
2022/10/04 01:03:05;;;;;;;11.43;5.88;;;12.00;99.90;;;;;;4962278;28;20076;-78
2022/10/04 01:05:35;;;;;;;13.25;5.13;;;12.00;99.90;;;;;;4964405;28;20050;-79
2022/10/04 01:08:09;;;;;;;12.43;4.82;;;12.00;99.90;;;;;;4969311;28;20483;-78
2022/10/04 01:10:49;;;;;;;14.63;5.70;;;12.00;99.90;;;;;;4986920;28;20049;-76
2022/10/04 01:13:23;;;;;;;13.23;5.20;;;11.90;99.90;;;;;;4980835;28;20089;-82
2022/10/04 01:16:01;;;;;;;13.73;5.40;;;11.90;99.90;;;;;;4986263;28;20061;-76
2022/10/04 01:18:29;;;;;;;19.63;5.28;;;11.90;99.90;;;;;;4969100;28;20050;-79
2022/10/04 01:23:40;;;;;;;13.05;5.45;;;11.80;99.90;;;;;;5137516;27;1227499;-76
2022/10/04 01:26:30;;;;;;;17.10;6.15;;;11.80;99.90;;;;;;5140833;27;20261;-78
2022/10/04 01:29:17;;;;;;;16.35;6.32;;;11.70;99.90;;;;;;5135894;27;20046;-78
2022/10/04 01:31:49;;;;;;;18.73;7.03;;;11.80;99.90;;;;;;5117969;27;20055;-81
2022/10/04 01:34:17;;;;;;;18.88;5.22;;;11.80;99.90;;;;;;5133616;27;20034;-81
2022/10/04 01:36:44;;;;;;;18.20;7.15;;;11.80;99.90;;;;;;5130734;27;20083;-80
2022/10/04 01:39:12;;;;;;;10.18;5.78;;;11.80;99.90;;;;;;5157678;27;20038;-77
2022/10/04 01:41:53;;;;;;;12.45;5.68;;;11.80;99.90;;;;;;5133508;27;20076;-79
2022/10/04 01:44:55;;;;;;;12.02;6.35;;;11.80;99.90;;;;;;5131231;27;20038;-78
2022/10/04 01:47:50;;;;;;;14.80;6.88;;;11.80;99.90;;;;;;5103449;27;20062;-77
2022/10/04 01:50:22;;;;;;;10.88;6.22;;;11.80;99.90;;;;;;5144967;27;20376;-79
2022/10/04 01:53:00;;;;;;;15.32;6.18;;;11.80;99.90;;;;;;5152200;27;21396;-78
2022/10/04 01:55:33;;;;;;;13.77;6.57;;;11.80;99.90;;;;;;5133613;27;20801;-76
2022/10/04 01:58:12;;;;;;;13.15;6.28;;;11.80;99.90;;;;;;5138629;27;20030;-76
2022/10/04 02:00:42;;;;;;;16.77;6.50;;;11.80;99.90;;;;;;5118775;27;20039;-77
2022/10/04 02:03:30;;;;;;;20.80;7.13;;;11.80;99.90;;;;;;5140369;27;20486;-77
2022/10/04 02:06:00;;;;;;;15.45;6.40;;;11.80;99.90;;;;;;5140698;27;20038;-77
2022/10/04 02:08:32;;;;;;;14.43;6.15;;;11.70;99.90;;;;;;5146383;27;20358;-79
2022/10/04 02:11:01;;;;;;;13.55;6.07;;;13.50;99.90;;;;;;5138625;27;20086;-79
2022/10/04 02:13:37;;;;;;;17.67;6.93;;;11.90;99.90;;;;;;5150798;27;20122;-77
2022/10/04 02:16:07;;;;;;;17.33;7.72;;;11.70;99.90;;;;;;5158392;27;20080;-78
2022/10/04 02:18:37;;;;;;;19.63;7.55;;;11.70;99.90;;;;;;5121818;27;20125;-76
2022/10/04 02:21:05;;;;;;;15.75;6.40;;;11.60;99.90;;;;;;5129126;27;20108;-80
2022/10/04 02:23:32;;;;;;;18.73;7.13;;;11.70;99.90;;;;;;5136222;27;20169;-77
2022/10/04 02:26:02;;;;;;;17.98;7.20;;;11.60;99.90;;;;;;5123215;27;20531;-77
2022/10/04 02:28:31;;;;;;;16.83;6.38;;;11.70;99.90;;;;;;5137211;27;20054;-77
2022/10/04 02:33:48;;;;;;;14.90;6.00;;;11.60;99.90;;;;;;5119563;27;20075;-77
2022/10/04 02:36:14;;;;;;;11.32;6.45;;;11.50;99.90;;;;;;5106063;27;20134;-81
2022/10/04 02:38:52;;;;;;;13.13;5.95;;;11.50;99.90;;;;;;5131590;27;20047;-80
2022/10/04 02:41:33;;;;;;;12.80;6.30;;;11.50;99.90;;;;;;5119095;27;20518;-83
2022/10/04 02:44:03;;;;;;;13.52;6.07;;;13.00;99.90;;;;;;5116098;27;20074;-82
2022/10/04 02:46:52;;;;;;;14.25;6.07;;;11.50;99.90;;;;;;5106131;27;20055;-82
2022/10/04 02:49:30;;;;;;;16.02;5.45;;;11.50;99.90;;;;;;5106895;27;20666;-76
2022/10/04 02:52:45;;;;;;;12.48;5.97;;;11.50;99.90;;;;;;5109812;27;20043;-78
2022/10/04 02:55:18;;;;;;;12.55;5.75;;;11.50;99.90;;;;;;5083840;27;20097;-77
2022/10/04 02:57:44;;;;;;;13.88;5.60;;;11.50;99.90;;;;;;5124912;27;20041;-79
2022/10/04 03:00:28;;;;;;;11.55;4.97;;;11.50;99.90;;;;;;5123601;27;20032;-77
2022/10/04 03:03:24;;;;;;;12.57;6.10;;;11.50;99.90;;;;;;5099585;27;20039;-77
2022/10/04 03:05:56;;;;;;;15.00;5.63;;;11.50;99.90;;;;;;5100537;27;20139;-78
2022/10/04 03:08:23;;;;;;;12.40;5.15;;;12.50;99.90;;;;;;5097807;27;20054;-77
2022/10/04 03:10:49;;;;;;;14.77;5.78;;;11.40;99.90;;;;;;5094462;27;20434;-77
2022/10/04 03:13:18;;;;;;;14.82;5.90;;;11.40;99.90;;;;;;5127323;27;20050;-77
2022/10/04 03:15:45;;;;;;;15.82;6.25;;;11.40;99.90;;;;;;5118690;27;20035;-78
2022/10/04 03:18:14;;;;;;;15.98;5.93;;;11.40;99.90;;;;;;5117890;27;20529;-77
2022/10/04 03:20:40;;;;;;;15.90;6.03;;;11.60;99.90;;;;;;5116229;27;20071;-80
2022/10/04 03:23:08;;;;;;;10.98;5.30;;;11.40;99.90;;;;;;5102562;27;20055;-80
2022/10/04 03:25:47;;;;;;;9.85;4.35;;;12.70;99.90;;;;;;5108649;27;20039;-77
2022/10/04 03:28:12;;;;;;;10.98;5.35;;;11.50;99.90;;;;;;5116005;27;20048;-77
2022/10/04 03:30:46;;;;;;;15.45;5.20;;;11.20;99.90;;;;;;5118214;27;20447;-79
2022/10/04 03:33:27;;;;;;;13.60;5.22;;;13.10;99.90;;;;;;5115518;27;20051;-75
2022/10/04 03:35:55;;;;;;;12.55;5.55;;;11.20;99.90;;;;;;5091474;27;20376;-77
2022/10/04 03:38:22;;;;;;;13.15;4.90;;;11.80;99.90;;;;;;5113909;27;20040;-77
2022/10/04 03:40:56;;;;;;;12.02;5.13;;;11.20;99.90;;;;;;5113192;27;20031;-78
2022/10/04 03:43:27;;;;;;;13.15;5.75;;;11.30;99.90;;;;;;5099205;27;20043;-77
2022/10/04 03:45:55;;;;;;;14.73;5.50;;;11.20;99.90;;;;;;5091840;27;20050;-77
2022/10/04 03:48:49;;;;;;;8.90;5.30;;;11.10;99.90;;;;;;5117337;27;20150;-81
2022/10/04 03:51:22;;;;;;;11.33;5.60;;;11.80;99.90;;;;;;5103745;27;20460;-82
2022/10/04 03:53:54;;;;;;;11.98;5.50;;;11.20;99.90;;;;;;5118162;27;20055;-81
2022/10/04 03:56:30;;;;;;;15.68;5.57;;;11.20;99.90;;;;;;5095787;27;20051;-83
2022/10/04 03:58:57;;;;;;;10.27;4.75;;;11.10;99.90;;;;;;5117771;27;20041;-82
2022/10/04 04:01:34;;;;;;;15.90;6.32;;;11.10;99.90;;;;;;5113221;27;20066;-83
2022/10/04 04:04:00;;;;;;;13.27;5.78;;;11.20;99.90;;;;;;5117163;27;20052;-80
2022/10/04 04:06:36;;;;;;;12.90;5.50;;;11.20;99.90;;;;;;5106406;27;20051;-79
2022/10/04 04:09:05;;;;;;;14.35;5.78;;;11.20;99.90;;;;;;5094359;27;20054;-79
2022/10/04 04:11:31;;;;;;;10.60;5.90;;;11.20;99.90;;;;;;5116014;27;20494;-81
2022/10/04 04:14:14;;;;;;;11.75;5.55;;;11.10;99.90;;;;;;5125882;27;20043;-79
2022/10/04 04:16:39;;;;;;;13.80;6.00;;;11.10;99.90;;;;;;5123843;27;20046;-81
2022/10/04 04:19:12;;;;;;;16.52;5.97;;;12.30;99.90;;;;;;5127003;27;20031;-81
2022/10/04 04:21:38;;;;;;;13.35;5.57;;;11.00;99.90;;;;;;5100640;28;20568;-79
2022/10/04 04:24:12;;;;;;;14.73;6.72;;;11.00;99.90;;;;;;5101814;27;20126;-78
2022/10/04 04:26:49;;;;;;;16.70;6.57;;;11.00;99.90;;;;;;5125616;27;20049;-79
2022/10/04 04:29:22;;;;;;;20.08;6.68;;;10.90;99.90;;;;;;5127789;27;20039;-79
2022/10/04 04:32:07;;;;;;;19.67;7.25;;;10.90;99.90;;;;;;5117028;27;20449;-79
2022/10/04 04:34:49;;;;;;;19.15;8.10;;;10.90;99.90;;;;;;5118172;27;20062;-80
2022/10/04 04:37:14;;;;;;;69.75;50.75;;;10.40;99.90;;;;;;5122588;27;20043;-77
2022/10/04 04:39:41;;;;;;;56.13;27.02;;;10.80;99.90;;;;;;5106071;27;20065;-77
2022/10/04 04:42:09;;;;;;;19.73;10.05;;;10.80;99.90;;;;;;5124451;27;20051;-78
2022/10/04 04:44:56;;;;;;;18.48;8.07;;;10.70;99.90;;;;;;5122526;27;20075;-78
2022/10/04 04:47:34;;;;;;;16.77;9.02;;;10.80;99.90;;;;;;5119846;27;20477;-81
2022/10/04 04:50:07;;;;;;;17.38;7.88;;;10.80;99.90;;;;;;5114282;27;20437;-77
2022/10/04 04:52:34;;;;;;;12.27;6.97;;;10.80;99.90;;;;;;5121508;27;20490;-79
2022/10/04 04:55:01;;;;;;;12.68;7.43;;;10.60;99.90;;;;;;5100588;27;20035;-79
2022/10/04 04:57:27;;;;;;;13.45;7.03;;;10.70;99.90;;;;;;5125740;27;20168;-79
2022/10/04 04:59:58;;;;;;;13.65;6.93;;;10.00;99.90;;;;;;5122636;27;20158;-77
2022/10/04 05:02:29;;;;;;;18.15;7.57;;;11.60;99.90;;;;;;5112111;27;20548;-80
2022/10/04 05:05:17;;;;;;;16.45;7.70;;;11.50;99.90;;;;;;5099668;28;20043;-77
2022/10/04 05:07:42;;;;;;;16.75;7.85;;;10.70;99.90;;;;;;5099195;27;20396;-79
2022/10/04 05:10:31;;;;;;;12.68;7.65;;;10.90;99.90;;;;;;5113049;27;20039;-81
2022/10/04 05:13:03;;;;;;;16.10;7.40;;;10.70;99.90;;;;;;5101504;28;20043;-76
2022/10/04 05:15:34;;;;;;;15.00;7.68;;;10.70;99.90;;;;;;5098815;28;20031;-77
2022/10/04 05:18:02;;;;;;;14.57;7.75;;;10.80;99.90;;;;;;5101325;27;20459;-76
2022/10/04 05:20:30;;;;;;;14.93;7.07;;;12.50;99.90;;;;;;5115687;27;20050;-79
2022/10/04 05:22:57;;;;;;;12.05;7.18;;;10.70;99.90;;;;;;5112051;28;20183;-80
2022/10/04 05:25:31;;;;;;;18.73;8.13;;;12.00;99.90;;;;;;5114615;28;20039;-76
2022/10/04 05:27:57;;;;;;;15.27;8.00;;;10.70;99.90;;;;;;5115196;28;20122;-76
2022/10/04 05:30:45;;;;;;;20.10;8.77;;;10.60;99.90;;;;;;5114473;28;20899;-80
2022/10/04 05:33:16;;;;;;;13.30;8.60;;;10.60;99.90;;;;;;5115656;28;20047;-77
2022/10/04 05:36:08;;;;;;;14.95;8.90;;;10.90;99.90;;;;;;5098566;28;20043;-79
2022/10/04 05:38:55;;;;;;;14.27;8.70;;;10.60;99.90;;;;;;4761003;28;10000332;-77
2022/10/04 05:41:28;;;;;;;12.13;9.20;;;10.60;99.90;;;;;;5116443;28;20394;-81
2022/10/04 05:43:54;;;;;;;19.85;8.80;;;11.20;99.90;;;;;;5100684;28;20118;-78
2022/10/04 05:46:27;;;;;;;14.68;7.68;;;10.60;99.90;;;;;;5123342;27;20138;-80
2022/10/04 05:49:07;;;;;;;16.65;8.48;;;10.50;99.90;;;;;;5095924;28;20059;-77
2022/10/04 05:51:46;;;;;;;17.42;9.57;;;10.50;99.90;;;;;;5123607;28;20134;-80
2022/10/04 05:54:12;;;;;;;16.73;9.60;;;10.60;99.90;;;;;;5099974;28;20047;-76
2022/10/04 05:56:45;;;;;;;21.90;13.75;;;10.40;99.90;;;;;;5116920;28;20104;-80
2022/10/04 05:59:35;;;;;;;17.15;9.77;;;11.90;99.90;;;;;;5102901;28;20486;-80
2022/10/04 06:02:42;;;;;;;19.42;9.48;;;10.40;99.90;;;;;;5117557;28;20514;-78
2022/10/04 06:05:39;;;;;;;17.92;9.90;;;10.40;99.90;;;;;;5120346;28;20056;-78
2022/10/04 06:08:26;;;;;;;24.63;10.93;;;10.40;99.90;;;;;;5093252;28;20028;-82
2022/10/04 06:11:17;;;;;;;17.40;9.70;;;10.40;99.90;;;;;;5104128;27;20486;-79
2022/10/04 06:14:04;;;;;;;24.20;11.00;;;10.40;99.90;;;;;;5107780;27;20064;-79
2022/10/04 06:17:07;;;;;;;16.63;9.80;;;10.40;99.90;;;;;;5115664;27;20100;-80
2022/10/04 06:20:11;;;;;;;22.77;10.55;;;10.30;99.90;;;;;;5124225;27;20046;-82
2022/10/04 06:22:47;;;;;;;20.15;10.77;;;10.30;99.90;;;;;;5084401;28;20056;-80
2022/10/04 06:25:25;;;;;;;16.38;9.85;;;10.30;99.90;;;;;;5071903;28;20142;-80
2022/10/04 06:28:29;;;;;;;26.95;12.45;;;10.40;99.90;;;;;;5099570;27;20055;-81
2022/10/04 06:31:41;;;;;;;17.98;11.13;;;9.90;99.90;;;;;;5121001;27;20167;-80
2022/10/04 06:34:32;;;;;;;18.30;10.50;;;10.40;99.90;;;;;;5015553;28;20081;-80
2022/10/04 06:37:28;;;;;;;16.48;10.10;;;10.40;99.90;;;;;;5051510;28;20048;-82
2022/10/04 06:40:05;;;;;;;25.92;12.55;;;10.40;99.90;;;;;;5099053;27;20047;-81
2022/10/04 06:42:57;;;;;;;21.95;12.70;;;10.40;99.90;;;;;;5117381;27;20047;-79
2022/10/04 06:45:57;;;;;;;16.77;9.68;;;10.40;99.90;;;;;;5102993;27;20039;-79
2022/10/04 06:48:37;;;;;;;16.98;10.48;;;10.40;99.90;;;;;;5123642;27;20035;-80
2022/10/04 06:51:19;;;;;;;15.88;10.32;;;10.50;99.90;;;;;;5125663;27;20031;-80
2022/10/04 06:54:07;;;;;;;17.45;9.85;;;10.70;99.90;;;;;;5119821;27;20027;-81
2022/10/04 06:57:07;;;;;;;17.35;10.63;;;10.50;99.90;;;;;;5119893;27;20104;-81
2022/10/04 06:59:51;;;;;;;23.20;11.15;;;10.50;99.90;;;;;;5118821;27;20039;-80
2022/10/04 07:02:26;;;;;;;23.02;10.50;;;10.60;99.90;;;;;;5114107;27;20085;-82
2022/10/04 07:05:04;;;;;;;19.85;11.07;;;10.60;99.90;;;;;;5123082;27;20038;-82
2022/10/04 07:07:36;;;;;;;18.67;11.00;;;12.00;99.90;;;;;;5121351;27;20047;-82
2022/10/04 07:10:15;;;;;;;19.25;11.25;;;10.60;99.90;;;;;;5103628;27;20118;-80
2022/10/04 07:12:46;;;;;;;21.02;11.23;;;10.70;99.90;;;;;;5115674;27;20089;-80
2022/10/04 07:15:20;;;;;;;20.55;11.07;;;10.70;99.90;;;;;;5094234;27;20028;-81
2022/10/04 07:17:48;;;;;;;14.55;10.75;;;10.70;99.90;;;;;;5109830;27;20080;-79
2022/10/04 07:20:26;;;;;;;22.45;11.93;;;10.70;99.90;;;;;;5124298;27;20035;-79
2022/10/04 07:23:21;;;;;;;18.90;11.30;;;10.80;99.90;;;;;;5092504;28;20043;-78
2022/10/04 07:25:54;;;;;;;17.73;12.18;;;10.90;99.90;;;;;;5104132;28;20390;-80
2022/10/04 07:31:25;;;;;;;21.38;11.70;;;11.00;99.90;;;;;;5108118;28;20044;-79
2022/10/04 07:34:15;;;;;;;19.67;12.05;;;11.10;99.90;;;;;;5092154;28;20109;-80
2022/10/04 07:36:55;;;;;;;24.25;11.90;;;11.10;99.90;;;;;;5091142;28;20555;-79
2022/10/04 07:39:30;;;;;;;20.98;12.85;;;11.20;99.90;;;;;;5107301;28;20036;-78
2022/10/04 07:42:04;;;;;;;19.73;12.18;;;11.30;99.90;;;;;;5107898;28;20039;-79
2022/10/04 07:44:38;;;;;;;17.55;11.52;;;13.00;99.90;;;;;;5090843;28;20067;-80
2022/10/04 07:47:26;;;;;;;18.55;11.27;;;11.50;99.90;;;;;;5104539;28;20043;-80
2022/10/04 07:49:53;;;;;;;18.75;10.95;;;11.50;99.90;;;;;;5106336;28;20036;-80
2022/10/04 07:52:35;;;;;;;22.88;11.80;;;13.10;99.90;;;;;;5109097;28;20044;-79
2022/10/04 07:55:18;;;;;;;20.17;12.38;;;11.60;99.90;;;;;;5090970;28;20162;-80
2022/10/04 07:58:09;;;;;;;18.73;11.70;;;11.70;99.90;;;;;;5084152;28;20047;-81
2022/10/04 08:00:48;;;;;;;19.40;11.20;;;11.70;99.90;;;;;;5103998;28;20048;-79
2022/10/04 08:03:34;;;;;;;27.73;11.85;;;11.60;99.90;;;;;;5087486;28;20490;-80
2022/10/04 08:06:23;;;;;;;19.42;11.32;;;13.10;99.90;;;;;;5107845;28;20130;-81
2022/10/04 08:09:10;;;;;;;20.20;11.52;;;11.80;99.90;;;;;;5101968;28;20035;-82
2022/10/04 08:12:04;;;;;;;21.98;11.93;;;11.80;99.90;;;;;;5106902;28;20048;-81
2022/10/04 08:14:51;;;;;;;17.48;11.77;;;11.90;99.90;;;;;;5091485;28;20055;-79
2022/10/04 08:17:38;;;;;;;16.77;11.15;;;11.90;99.90;;;;;;5109586;28;20050;-79
2022/10/04 08:20:18;;;;;;;18.35;12.70;;;11.90;99.90;;;;;;5107389;28;20039;-85
2022/10/04 08:23:04;;;;;;;16.00;11.02;;;11.90;99.90;;;;;;5110237;27;20381;-80
2022/10/04 08:26:02;;;;;;;18.80;10.90;;;12.00;99.90;;;;;;5118296;27;20088;-82
2022/10/04 08:31:56;;;;;;;19.27;10.93;;;12.10;99.90;;;;;;5121107;27;20051;-82
2022/10/04 08:34:37;;;;;;;23.10;10.98;;;12.10;99.90;;;;;;5121543;27;20038;-81
2022/10/04 08:37:14;;;;;;;17.05;10.82;;;12.30;99.90;;;;;;5122664;27;20043;-83
2022/10/04 08:40:04;;;;;;;18.40;10.20;;;12.30;99.90;;;;;;5096685;28;20039;-84
2022/10/04 08:42:51;;;;;;;21.02;10.63;;;12.40;99.90;;;;;;5110196;27;20081;-81
2022/10/04 08:45:42;;;;;;;14.48;10.52;;;12.50;99.90;;;;;;5126299;27;20035;-84
2022/10/04 08:48:39;;;;;;;20.60;9.77;;;12.50;99.90;;;;;;5115594;27;20482;-82
2022/10/04 08:51:23;;;;;;;18.33;9.95;;;12.60;99.90;;;;;;5104771;27;20087;-83
2022/10/04 08:54:37;;;;;;;15.07;9.32;;;12.70;99.90;;;;;;5098006;28;20027;-84
2022/10/04 08:57:30;;;;;;;21.00;9.07;;;12.70;99.90;;;;;;5121873;27;20154;-86
2022/10/04 09:00:40;;;;;;;17.83;9.38;;;12.80;99.90;;;;;;5099482;27;20083;-88
2022/10/04 09:03:25;;;;;;;12.70;7.65;;;12.90;99.90;;;;;;5098269;27;20059;-85
2022/10/04 09:06:15;;;;;;;15.45;7.78;;;12.90;99.90;;;;;;5096768;28;20483;-87
2022/10/04 09:09:34;;;;;;;10.50;7.82;;;13.00;99.90;;;;;;5101387;27;20050;-80
2022/10/04 09:12:27;;;;;;;16.08;8.02;;;13.00;99.90;;;;;;5115439;27;20492;-80
2022/10/04 09:14:55;;;;;;;12.50;7.13;;;13.10;99.90;;;;;;5121446;27;20039;-81
2022/10/04 09:17:54;;;;;;;16.17;7.25;;;13.20;99.90;;;;;;5096871;28;20563;-80
2022/10/04 09:20:58;;;;;;;9.88;7.72;;;13.20;99.90;;;;;;5096721;28;20141;-80
2022/10/04 09:24:03;;;;;;;18.90;6.50;;;13.40;99.90;;;;;;5123884;28;20353;-87
2022/10/04 09:26:46;;;;;;;15.73;7.22;;;13.40;99.90;;;;;;5109868;28;20471;-84
2022/10/04 09:29:21;;;;;;;10.88;7.07;;;13.50;99.90;;;;;;5111602;28;20088;-80
2022/10/04 09:32:11;;;;;;;13.80;8.13;;;14.00;99.90;;;;;;5122984;28;20112;-87
2022/10/04 09:35:10;;;;;;;11.75;7.65;;;13.60;99.90;;;;;;5122184;28;20041;-81
2022/10/04 09:37:56;;;;;;;10.70;6.43;;;13.60;99.90;;;;;;5123924;27;20506;-82
2022/10/04 09:40:46;;;;;;;8.35;5.78;;;13.70;99.90;;;;;;5102886;28;20086;-81
2022/10/04 09:43:35;;;;;;;11.93;5.60;;;13.80;99.90;;;;;;5122200;27;20043;-80
2022/10/04 09:46:17;;;;;;;15.95;5.80;;;15.30;99.90;;;;;;5100619;27;20105;-80
2022/10/04 09:49:02;;;;;;;9.93;6.13;;;14.00;99.90;;;;;;5105345;27;20492;-80
2022/10/04 09:51:40;;;;;;;15.23;7.03;;;14.00;99.90;;;;;;5124664;27;20043;-80
2022/10/04 09:54:32;;;;;;;11.25;6.65;;;14.10;99.90;;;;;;5125587;27;20395;-80
2022/10/04 09:57:27;;;;;;;11.30;8.10;;;14.10;99.90;;;;;;5122613;27;20043;-81
2022/10/04 10:00:01;;;;;;;10.18;6.95;;;14.30;99.90;;;;;;5127480;27;20538;-82
2022/10/04 10:02:53;;;;;;;14.93;7.40;;;14.80;99.90;;;;;;5123624;27;20451;-81
2022/10/04 10:05:27;;;;;;;13.13;7.65;;;14.40;99.90;;;;;;5113891;27;20035;-83
2022/10/04 10:08:11;;;;;;;11.07;7.35;;;14.40;99.90;;;;;;5103040;28;20039;-82
2022/10/04 10:14:08;;;;;;;13.35;7.45;;;14.50;99.90;;;;;;5129962;27;20469;-83
2022/10/04 10:17:14;;;;;;;10.32;7.18;;;14.50;99.90;;;;;;5101509;27;20043;-84
2022/10/04 10:20:22;;;;;;;11.48;6.45;;;14.60;99.90;;;;;;5123826;27;20043;-85
2022/10/04 10:23:08;;;;;;;10.50;5.82;;;14.70;99.90;;;;;;5005348;28;20453;-82
2022/10/04 10:26:29;;;;;;;10.25;5.18;;;14.70;99.90;;;;;;5021686;28;20049;-83
2022/10/04 10:29:28;;;;;;;8.00;4.70;;;14.80;99.90;;;;;;5056468;27;20051;-81
2022/10/04 10:32:03;;;;;;;7.18;5.00;;;14.90;99.90;;;;;;5116986;27;20039;-82
2022/10/04 10:35:05;;;;;;;8.45;4.90;;;15.00;99.90;;;;;;5113905;27;20036;-82
2022/10/04 10:37:59;;;;;;;6.50;4.43;;;15.00;99.90;;;;;;5096479;28;20380;-84
2022/10/04 10:40:51;;;;;;;12.57;5.65;;;15.10;99.90;;;;;;5119139;27;20582;-83
2022/10/04 10:43:45;;;;;;;13.05;9.30;;;15.10;99.90;;;;;;5102061;27;20331;-82
2022/10/04 10:46:26;;;;;;;7.80;4.63;;;15.20;99.90;;;;;;5118117;27;20040;-87
2022/10/04 10:49:17;;;;;;;7.47;5.28;;;15.30;99.90;;;;;;5122755;27;20114;-81
2022/10/04 10:51:55;;;;;;;11.27;4.65;;;15.40;99.90;;;;;;5110987;27;20054;-83
2022/10/04 10:54:58;;;;;;;5.88;4.05;;;15.50;99.90;;;;;;5128342;27;20043;-85
2022/10/04 10:57:55;;;;;;;7.40;4.88;;;15.60;99.90;;;;;;5118868;27;20036;-83
2022/10/04 11:00:23;;;;;;;9.60;4.45;;;15.70;99.90;;;;;;5097563;27;20031;-85
2022/10/04 11:02:57;;;;;;;10.65;5.18;;;15.80;99.90;;;;;;5102148;27;20208;-84
2022/10/04 11:05:46;;;;;;;8.65;4.32;;;15.90;99.90;;;;;;5128708;27;20435;-84
2022/10/04 11:08:28;;;;;;;9.63;4.30;;;16.00;99.90;;;;;;5121156;27;20041;-86
2022/10/04 11:11:22;;;;;;;9.45;5.45;;;16.10;99.90;;;;;;5111641;27;20039;-83
2022/10/04 11:14:10;;;;;;;10.95;4.78;;;16.20;99.90;;;;;;5109992;27;20036;-82
2022/10/04 11:17:00;;;;;;;10.20;4.57;;;16.20;99.90;;;;;;5130246;27;20087;-84
2022/10/04 11:19:49;;;;;;;7.43;4.82;;;16.20;99.90;;;;;;5099973;28;20035;-81
2022/10/04 11:22:17;;;;;;;9.52;5.10;;;16.20;99.90;;;;;;5110405;27;20032;-80
2022/10/04 11:24:58;;;;;;;8.25;4.70;;;16.20;99.90;;;;;;5130345;27;20677;-81
2022/10/04 11:28:03;;;;;;;14.45;5.20;;;16.20;99.90;;;;;;5146226;27;20043;-80
2022/10/04 11:31:06;;;;;;;8.20;3.67;;;16.20;99.90;;;;;;5104220;27;20738;-81
2022/10/04 11:34:11;;;;;;;8.57;4.43;;;16.20;99.90;;;;;;5120435;27;20065;-82
2022/10/04 11:37:14;;;;;;;9.27;5.22;;;16.20;99.90;;;;;;5127773;27;20366;-81
2022/10/04 11:40:07;;;;;;;10.13;5.85;;;16.30;99.90;;;;;;5101074;27;20665;-80
2022/10/04 11:43:04;;;;;;;9.32;4.53;;;16.40;99.90;;;;;;5105467;27;20417;-82
2022/10/04 11:46:04;;;;;;;11.55;4.80;;;16.40;99.90;;;;;;5147037;27;20427;-80
2022/10/04 11:48:58;;;;;;;13.75;6.07;;;16.40;99.90;;;;;;5095533;27;20051;-83
2022/10/04 11:51:54;;;;;;;10.07;4.27;;;16.50;99.90;;;;;;5144144;27;20489;-81
2022/10/04 11:54:47;;;;;;;10.40;5.30;;;16.60;99.90;;;;;;5123849;27;20085;-80
2022/10/04 11:57:37;;;;;;;8.98;4.60;;;16.70;99.90;;;;;;5106152;27;20046;-80
2022/10/04 12:00:11;;;;;;;9.70;5.63;;;16.80;99.90;;;;;;5146856;27;20042;-82
2022/10/04 12:02:54;;;;;;;8.83;4.80;;;16.90;99.90;;;;;;5101940;27;20545;-81
2022/10/04 12:05:48;;;;;;;8.90;4.82;;;16.90;99.90;;;;;;5144508;27;20299;-81
2022/10/04 12:08:14;;;;;;;6.15;3.80;;;17.00;99.90;;;;;;5119743;27;20043;-81
2022/10/04 12:10:42;;;;;;;9.25;4.82;;;17.10;99.90;;;;;;5127595;27;20133;-81
2022/10/04 12:13:22;;;;;;;13.45;7.97;;;17.20;99.90;;;;;;5147874;27;20440;-82
2022/10/04 12:16:03;;;;;;;9.82;4.88;;;17.30;99.90;;;;;;5099806;27;20506;-80
2022/10/04 12:18:41;;;;;;;7.57;5.28;;;17.20;99.90;;;;;;5110506;27;20047;-82
2022/10/04 12:21:27;;;;;;;11.75;4.97;;;17.20;99.90;;;;;;5139910;27;20113;-82
2022/10/04 12:24:18;;;;;;;10.07;5.32;;;17.30;99.90;;;;;;5101729;27;20050;-80
2022/10/04 12:27:06;;;;;;;8.48;5.28;;;17.40;99.90;;;;;;5117277;27;20039;-82
2022/10/04 12:29:44;;;;;;;13.15;5.72;;;17.50;99.90;;;;;;5122178;27;20042;-81
2022/10/04 12:32:26;;;;;;;10.65;5.70;;;17.50;99.90;;;;;;5142292;27;20039;-82
2022/10/04 12:35:21;;;;;;;13.15;5.97;;;17.60;99.90;;;;;;5145368;27;20055;-82
2022/10/04 12:38:07;;;;;;;6.80;4.50;;;17.60;99.90;;;;;;5100171;27;20091;-84
2022/10/04 12:40:58;;;;;;;9.73;5.03;;;17.60;99.90;;;;;;5103731;27;20057;-81
2022/10/04 12:43:46;;;;;;;9.32;4.60;;;17.60;99.90;;;;;;5138157;27;20120;-83
2022/10/04 12:46:28;;;;;;;13.63;5.07;;;17.60;99.90;;;;;;5142195;27;20041;-86
2022/10/04 12:48:53;;;;;;;11.57;4.60;;;17.70;99.90;;;;;;5108870;27;20088;-81
2022/10/04 12:51:32;;;;;;;7.82;4.68;;;17.70;99.90;;;;;;5105259;27;20538;-81
2022/10/04 12:54:06;;;;;;;8.32;4.50;;;17.70;99.90;;;;;;5148786;27;20045;-81
2022/10/04 12:56:47;;;;;;;6.00;4.35;;;17.60;99.90;;;;;;5108344;27;20349;-84
2022/10/04 12:59:28;;;;;;;6.55;4.13;;;17.60;99.90;;;;;;5100069;27;20079;-83
2022/10/04 13:02:44;;;;;;;7.50;4.15;;;17.50;99.90;;;;;;5097983;27;20079;-84
2022/10/04 13:05:43;;;;;;;8.48;3.97;;;17.50;99.90;;;;;;5101884;27;20039;-86
2022/10/04 13:08:46;;;;;;;7.45;3.20;;;17.40;99.90;;;;;;5105584;27;20048;-88
2022/10/04 13:11:51;;;;;;;7.43;3.85;;;17.30;99.90;;;;;;5118989;27;20091;-88
2022/10/04 13:14:40;;;;;;;9.63;6.07;;;17.40;99.90;;;;;;5137081;27;20091;-89
2022/10/04 13:17:45;;;;;;;10.20;5.53;;;17.70;99.90;;;;;;5121612;27;20039;-87
2022/10/04 13:20:28;;;;;;;9.77;4.07;;;17.50;99.90;;;;;;5122957;27;20039;-79
2022/10/04 13:23:19;;;;;;;6.10;3.83;;;17.60;99.90;;;;;;5105077;27;20050;-84
2022/10/04 13:26:00;;;;;;;8.10;4.07;;;17.70;99.90;;;;;;5089419;28;20196;-82
2022/10/04 13:28:48;;;;;;;12.32;4.22;;;17.70;99.90;;;;;;5120815;27;20099;-79
2022/10/04 13:31:23;;;;;;;10.43;3.88;;;17.80;99.90;;;;;;5117668;27;20039;-79
2022/10/04 13:34:35;;;;;;;7.85;3.70;;;17.80;99.90;;;;;;5100856;27;20039;-79
2022/10/04 13:37:29;;;;;;;5.32;2.67;;;17.80;99.90;;;;;;5045317;28;20039;-81
2022/10/04 13:40:17;;;;;;;7.57;3.60;;;17.70;99.90;;;;;;5026069;28;20044;-83
2022/10/04 13:43:14;;;;;;;8.55;4.63;;;17.50;99.90;;;;;;5116818;27;20050;-80
2022/10/04 13:45:42;;;;;;;6.53;3.72;;;17.40;99.90;;;;;;5118390;27;20051;-81
2022/10/04 13:48:44;;;;;;;7.13;4.05;;;17.30;99.90;;;;;;5097608;27;20035;-80
2022/10/04 13:51:30;;;;;;;6.72;4.30;;;17.30;99.90;;;;;;5077618;28;20054;-76
2022/10/04 13:57:13;;;;;;;9.55;3.90;;;18.40;99.90;;;;;;5119529;27;20485;-79
2022/10/04 13:59:58;;;;;;;6.30;3.65;;;17.20;99.90;;;;;;5125559;27;20035;-84
2022/10/04 14:02:32;;;;;;;8.20;3.65;;;17.30;99.90;;;;;;5138805;27;20092;-76
2022/10/04 14:05:19;;;;;;;4.93;2.80;;;17.30;99.90;;;;;;5138042;27;20035;-77
2022/10/04 14:08:02;;;;;;;9.82;4.05;;;17.20;99.90;;;;;;5138770;27;20071;-77
2022/10/04 14:10:47;;;;;;;6.53;3.38;;;17.20;99.90;;;;;;5122424;28;20055;-78